Time;durP1;ratioP1;P1;durP2;ratioP2;P2;SDS_P1;SDS_P2;PMS_P1;PMS_P2;Temp;Humidity;BMP_temperature;BMP_pressure;BME280_temperature;BME280_humidity;BME280_pressure;Samples;Min_cycle;Max_cycle;Signal;HPM_P1;HPM_P2
2023/06/11 00:01:26;;;;;;;;;;;;;;;;;;5065352;28;19924;-66
2023/06/11 00:03:52;;;;;;;;;;;;;;;;;;5070813;28;19929;-65
2023/06/11 00:06:20;;;;;;;;;;;;;;;;;;5053459;28;20013;-65
2023/06/11 00:08:46;;;;;;;;;;;;;;;;;;5071849;28;19924;-65
2023/06/11 00:11:12;;;;;;;;;;;;;;;;;;5050162;28;19974;-65
2023/06/11 00:13:38;;;;;;;;;;;;;;;;;;5064693;28;19924;-65
2023/06/11 00:16:04;;;;;;;;;;;;;;;;;;5065536;28;19924;-65
2023/06/11 00:18:29;;;;;;;;;;;;;;;;;;5070406;28;19920;-65
2023/06/11 00:20:58;;;;;;;;;;;;;;;;;;5070099;28;20401;-65
2023/06/11 00:23:24;;;;;;;;;;;;;;;;;;5069763;28;19966;-65
2023/06/11 00:25:52;;;;;;;;;;;;;;;;;;5071832;28;19924;-65
2023/06/11 00:28:18;;;;;;;;;;;;;;;;;;5035390;28;19928;-65
2023/06/11 00:30:44;;;;;;;;;;;;;;;;;;5066141;28;19966;-65
2023/06/11 00:33:10;;;;;;;;;;;;;;;;;;5067163;28;20259;-65
2023/06/11 00:35:36;;;;;;;;;;;;;;;;;;5069622;28;19974;-65
2023/06/11 00:38:02;;;;;;;;;;;;;;;;;;5070333;28;19926;-65
2023/06/11 00:40:28;;;;;;;;;;;;;;;;;;5066854;28;20424;-65
2023/06/11 00:42:54;;;;;;;;;;;;;;;;;;5068292;28;19935;-66
2023/06/11 00:45:22;;;;;;;;;;;;;;;;;;5047134;28;20015;-65
2023/06/11 00:47:48;;;;;;;;;;;;;;;;;;5051543;28;19925;-65
2023/06/11 00:50:15;;;;;;;;;;;;;;;;;;5069989;28;20003;-66
2023/06/11 00:52:41;;;;;;;;;;;;;;;;;;5071881;28;19973;-66
2023/06/11 00:55:07;;;;;;;;;;;;;;;;;;5070876;28;19971;-66
2023/06/11 00:57:35;;;;;;;;;;;;;;;;;;5071822;28;19927;-66
2023/06/11 01:00:01;;;;;;;;;;;;;;;;;;5068190;28;19928;-66
2023/06/11 01:02:27;;;;;;;;;;;;;;;;;;5067251;28;19929;-66
2023/06/11 01:04:57;;;;;;;;;;;;;;;;;;5069769;28;19921;-66
2023/06/11 01:07:23;;;;;;;;;;;;;;;;;;5069657;28;19947;-66
2023/06/11 01:09:48;;;;;;;;;;;;;;;;;;5067354;28;20362;-66
2023/06/11 01:12:14;;;;;;;;;;;;;;;;;;5051281;28;19924;-66
2023/06/11 01:14:42;;;;;;;;;;;;;;;;;;5069385;28;20002;-66
2023/06/11 01:17:08;;;;;;;;;;;;;;;;;;5051553;28;20306;-66
2023/06/11 01:19:37;;;;;;;;;;;;;;;;;;5069043;28;19921;-66
2023/06/11 01:22:03;;;;;;;;;;;;;;;;;;5067326;28;19925;-66
2023/06/11 01:24:29;;;;;;;;;;;;;;;;;;5068908;28;20412;-66
2023/06/11 01:26:55;;;;;;;;;;;;;;;;;;5069887;28;19970;-66
2023/06/11 01:29:21;;;;;;;;;;;;;;;;;;5050097;28;19981;-66
2023/06/11 01:31:47;;;;;;;;;;;;;;;;;;5046882;28;19920;-66
2023/06/11 01:34:13;;;;;;;;;;;;;;;;;;5031712;28;19951;-66
2023/06/11 01:36:39;;;;;;;;;;;;;;;;;;5047857;28;19978;-66
2023/06/11 01:39:05;;;;;;;;;;;;;;;;;;5069781;28;19927;-66
2023/06/11 01:41:31;;;;;;;;;;;;;;;;;;5069309;28;20366;-66
2023/06/11 01:43:57;;;;;;;;;;;;;;;;;;5066570;28;19932;-66
2023/06/11 01:46:23;;;;;;;;;;;;;;;;;;5069166;28;19943;-66
2023/06/11 01:48:48;;;;;;;;;;;;;;;;;;5069954;28;19929;-66
2023/06/11 01:51:14;;;;;;;;;;;;;;;;;;5052969;28;19928;-66
2023/06/11 01:53:40;;;;;;;;;;;;;;;;;;5072357;28;19924;-66
2023/06/11 01:56:06;;;;;;;;;;;;;;;;;;5066831;28;19921;-66
2023/06/11 01:58:33;;;;;;;;;;;;;;;;;;5070354;28;20378;-66
2023/06/11 02:00:59;;;;;;;;;;;;;;;;;;5050980;28;19920;-66
2023/06/11 02:03:25;;;;;;;;;;;;;;;;;;5070662;28;20359;-66
2023/06/11 02:05:51;;;;;;;;;;;;;;;;;;5072507;28;19932;-66
2023/06/11 02:08:17;;;;;;;;;;;;;;;;;;5072019;28;19928;-66
2023/06/11 02:10:43;;;;;;;;;;;;;;;;;;5069057;28;20479;-66
2023/06/11 02:13:09;;;;;;;;;;;;;;;;;;5073963;28;19920;-66
2023/06/11 02:15:35;;;;;;;;;;;;;;;;;;5068139;28;19973;-66
2023/06/11 02:18:01;;;;;;;;;;;;;;;;;;5072056;28;20634;-66
2023/06/11 02:20:27;;;;;;;;;;;;;;;;;;5072228;28;19932;-66
2023/06/11 02:22:53;;;;;;;;;;;;;;;;;;5069623;28;20001;-66
2023/06/11 02:25:19;;;;;;;;;;;;;;;;;;5070355;28;20285;-66
2023/06/11 02:27:44;;;;;;;;;;;;;;;;;;5071365;28;19936;-66
2023/06/11 02:30:10;;;;;;;;;;;;;;;;;;5068845;28;19924;-66
2023/06/11 02:32:36;;;;;;;;;;;;;;;;;;5069404;28;19925;-66
2023/06/11 02:35:02;;;;;;;;;;;;;;;;;;5072518;28;19995;-66
2023/06/11 02:37:28;;;;;;;;;;;;;;;;;;5073396;28;20386;-66
2023/06/11 02:39:54;;;;;;;;;;;;;;;;;;5042084;28;20043;-66
2023/06/11 02:42:20;;;;;;;;;;;;;;;;;;5073557;28;19968;-66
2023/06/11 02:44:46;;;;;;;;;;;;;;;;;;5072313;28;20005;-66
2023/06/11 02:47:12;;;;;;;;;;;;;;;;;;5072856;28;20378;-66
2023/06/11 02:49:38;;;;;;;;;;;;;;;;;;5071364;28;19921;-66
2023/06/11 02:52:04;;;;;;;;;;;;;;;;;;5073539;28;19927;-66
2023/06/11 02:54:30;;;;;;;;;;;;;;;;;;5067717;28;20507;-66
2023/06/11 02:56:56;;;;;;;;;;;;;;;;;;5038818;28;20305;-66
2023/06/11 02:59:22;;;;;;;;;;;;;;;;;;5053620;28;19924;-66
2023/06/11 03:01:48;;;;;;;;;;;;;;;;;;5037537;28;19970;-65
2023/06/11 03:04:14;;;;;;;;;;;;;;;;;;5070390;28;20389;-65
2023/06/11 03:06:40;;;;;;;;;;;;;;;;;;5068489;28;19978;-65
2023/06/11 03:09:06;;;;;;;;;;;;;;;;;;5067439;28;19938;-65
2023/06/11 03:11:32;;;;;;;;;;;;;;;;;;5069353;28;20385;-65
2023/06/11 03:13:58;;;;;;;;;;;;;;;;;;5069909;28;19925;-65
2023/06/11 03:16:23;;;;;;;;;;;;;;;;;;5052125;28;20286;-65
2023/06/11 03:18:49;;;;;;;;;;;;;;;;;;5071010;28;20022;-65
2023/06/11 03:21:15;;;;;;;;;;;;;;;;;;5066508;28;20348;-65
2023/06/11 03:23:41;;;;;;;;;;;;;;;;;;5069059;28;19928;-65
2023/06/11 03:26:07;;;;;;;;;;;;;;;;;;5071524;28;19924;-65
2023/06/11 03:28:33;;;;;;;;;;;;;;;;;;5066310;28;21846;-65
2023/06/11 03:30:59;;;;;;;;;;;;;;;;;;5070490;28;20378;-65
2023/06/11 03:33:25;;;;;;;;;;;;;;;;;;5069373;28;20374;-66
2023/06/11 03:35:51;;;;;;;;;;;;;;;;;;5068846;28;19935;-65
2023/06/11 03:38:17;;;;;;;;;;;;;;;;;;5068374;28;20301;-65
2023/06/11 03:40:42;;;;;;;;;;;;;;;;;;5071860;28;19920;-66
2023/06/11 03:43:08;;;;;;;;;;;;;;;;;;5070906;28;20531;-65
2023/06/11 03:45:34;;;;;;;;;;;;;;;;;;5064344;28;20580;-65
2023/06/11 03:48:02;;;;;;;;;;;;;;;;;;5070616;28;20015;-66
2023/06/11 03:50:28;;;;;;;;;;;;;;;;;;5071441;28;19920;-65
2023/06/11 03:52:54;;;;;;;;;;;;;;;;;;5070692;28;19921;-65
2023/06/11 03:55:20;;;;;;;;;;;;;;;;;;5053028;28;20580;-66
2023/06/11 03:57:46;;;;;;;;;;;;;;;;;;5072973;28;19924;-65
2023/06/11 04:00:12;;;;;;;;;;;;;;;;;;5054481;28;19927;-65
2023/06/11 04:02:38;;;;;;;;;;;;;;;;;;5071797;28;20448;-66
2023/06/11 04:05:04;;;;;;;;;;;;;;;;;;5052300;28;19931;-65
2023/06/11 04:07:30;;;;;;;;;;;;;;;;;;5068453;28;19962;-65
2023/06/11 04:09:56;;;;;;;;;;;;;;;;;;5069844;28;19943;-65
2023/06/11 04:12:21;;;;;;;;;;;;;;;;;;5068812;28;19924;-65
2023/06/11 04:14:47;;;;;;;;;;;;;;;;;;5067598;28;19928;-65
2023/06/11 04:17:13;;;;;;;;;;;;;;;;;;5050404;28;19924;-65
2023/06/11 04:19:39;;;;;;;;;;;;;;;;;;5070526;28;19920;-66
2023/06/11 04:22:05;;;;;;;;;;;;;;;;;;5049266;28;19924;-65
2023/06/11 04:24:31;;;;;;;;;;;;;;;;;;5071596;28;19982;-65
2023/06/11 04:26:57;;;;;;;;;;;;;;;;;;5064875;28;20384;-65
2023/06/11 04:29:23;;;;;;;;;;;;;;;;;;5050289;28;19935;-66
2023/06/11 04:31:50;;;;;;;;;;;;;;;;;;5050435;28;19955;-66
2023/06/11 04:34:17;;;;;;;;;;;;;;;;;;5067257;28;19976;-66
2023/06/11 04:36:42;;;;;;;;;;;;;;;;;;5067194;28;20051;-66
2023/06/11 04:39:08;;;;;;;;;;;;;;;;;;5065874;28;20031;-66
2023/06/11 04:41:36;;;;;;;;;;;;;;;;;;5068013;28;19973;-66
2023/06/11 04:44:03;;;;;;;;;;;;;;;;;;5052158;28;19924;-66
2023/06/11 04:46:29;;;;;;;;;;;;;;;;;;5068095;28;20262;-65
2023/06/11 04:48:56;;;;;;;;;;;;;;;;;;5047849;28;19936;-66
2023/06/11 04:51:23;;;;;;;;;;;;;;;;;;5064363;28;19920;-65
2023/06/11 04:53:52;;;;;;;;;;;;;;;;;;5052293;28;19960;-66
2023/06/11 04:56:18;;;;;;;;;;;;;;;;;;5069951;28;19920;-65
2023/06/11 04:58:44;;;;;;;;;;;;;;;;;;5063792;28;19973;-65
2023/06/11 05:01:12;;;;;;;;;;;;;;;;;;5070452;28;19969;-65
2023/06/11 05:03:38;;;;;;;;;;;;;;;;;;5068040;28;20016;-65
2023/06/11 05:06:04;;;;;;;;;;;;;;;;;;5069291;28;19970;-66
2023/06/11 05:08:30;;;;;;;;;;;;;;;;;;5069149;28;20259;-65
2023/06/11 05:10:59;;;;;;;;;;;;;;;;;;5070714;28;20001;-65
2023/06/11 05:13:25;;;;;;;;;;;;;;;;;;5070716;28;20317;-65
2023/06/11 05:15:51;;;;;;;;;;;;;;;;;;5070615;28;20364;-66
2023/06/11 05:18:17;;;;;;;;;;;;;;;;;;5067042;28;19924;-66
2023/06/11 05:20:43;;;;;;;;;;;;;;;;;;5074031;28;19932;-66
2023/06/11 05:23:08;;;;;;;;;;;;;;;;;;5071900;28;20376;-66
2023/06/11 05:25:35;;;;;;;;;;;;;;;;;;5071702;28;19920;-66
2023/06/11 05:28:01;;;;;;;;;;;;;;;;;;5070788;28;19935;-66
2023/06/11 05:30:29;;;;;;;;;;;;;;;;;;5068567;28;19925;-66
2023/06/11 05:32:55;;;;;;;;;;;;;;;;;;5068414;28;19936;-66
2023/06/11 05:35:21;;;;;;;;;;;;;;;;;;5069130;28;20444;-66
2023/06/11 05:37:47;;;;;;;;;;;;;;;;;;5070404;28;19971;-67
2023/06/11 05:40:13;;;;;;;;;;;;;;;;;;5068887;28;19927;-66
2023/06/11 05:42:38;;;;;;;;;;;;;;;;;;5066870;28;19925;-67
2023/06/11 05:45:04;;;;;;;;;;;;;;;;;;5072728;28;19993;-66
2023/06/11 05:47:30;;;;;;;;;;;;;;;;;;5067645;28;19954;-67
2023/06/11 05:49:56;;;;;;;;;;;;;;;;;;5071272;28;19999;-67
2023/06/11 05:52:22;;;;;;;;;;;;;;;;;;5071277;28;20396;-67
2023/06/11 05:54:48;;;;;;;;;;;;;;;;;;5063505;28;19924;-65
2023/06/11 05:57:14;;;;;;;;;;;;;;;;;;5069659;28;20314;-65
2023/06/11 05:59:40;;;;;;;;;;;;;;;;;;5069187;28;19966;-65
2023/06/11 06:02:06;;;;;;;;;;;;;;;;;;5063377;28;19964;-65
2023/06/11 06:04:32;;;;;;;;;;;;;;;;;;5071097;28;20370;-65
2023/06/11 06:06:58;;;;;;;;;;;;;;;;;;5070148;28;20000;-65
2023/06/11 06:09:24;;;;;;;;;;;;;;;;;;5066667;28;19924;-66
2023/06/11 06:11:50;;;;;;;;;;;;;;;;;;5068523;28;20378;-66
2023/06/11 06:14:16;;;;;;;;;;;;;;;;;;5068520;28;19921;-66
2023/06/11 06:16:42;;;;;;;;;;;;;;;;;;5069459;28;19920;-66
2023/06/11 06:19:08;;;;;;;;;;;;;;;;;;5035276;28;20725;-66
2023/06/11 06:21:34;;;;;;;;;;;;;;;;;;5068983;28;19925;-65
2023/06/11 06:24:00;;;;;;;;;;;;;;;;;;5066899;28;21268;-66
2023/06/11 06:26:26;;;;;;;;;;;;;;;;;;5069235;28;20285;-65
2023/06/11 06:28:53;;;;;;;;;;;;;;;;;;5069582;28;19967;-66
2023/06/11 06:31:20;;;;;;;;;;;;;;;;;;5052373;28;19974;-66
2023/06/11 06:33:46;;;;;;;;;;;;;;;;;;5036250;28;19921;-66
2023/06/11 06:36:12;;;;;;;;;;;;;;;;;;5060053;28;20031;-66
2023/06/11 06:38:38;;;;;;;;;;;;;;;;;;5072298;28;20627;-66
2023/06/11 06:41:04;;;;;;;;;;;;;;;;;;5070537;28;19928;-66
2023/06/11 06:43:30;;;;;;;;;;;;;;;;;;5070115;28;20436;-66
2023/06/11 06:45:56;;;;;;;;;;;;;;;;;;5062723;28;19921;-66
2023/06/11 06:48:22;;;;;;;;;;;;;;;;;;5054963;28;20552;-66
2023/06/11 06:50:48;;;;;;;;;;;;;;;;;;5073458;28;20011;-66
2023/06/11 06:53:17;;;;;;;;;;;;;;;;;;5049935;28;20000;-66
2023/06/11 06:55:44;;;;;;;;;;;;;;;;;;5049371;28;19963;-66
2023/06/11 06:58:10;;;;;;;;;;;;;;;;;;5035084;28;19921;-66
2023/06/11 07:00:35;;;;;;;;;;;;;;;;;;5066955;28;19974;-66
2023/06/11 07:03:01;;;;;;;;;;;;;;;;;;5069408;28;19928;-66
2023/06/11 07:05:27;;;;;;;;;;;;;;;;;;5054233;28;20396;-66
2023/06/11 07:07:53;;;;;;;;;;;;;;;;;;5066583;28;20024;-66
2023/06/11 07:10:19;;;;;;;;;;;;;;;;;;5070857;28;19920;-66
2023/06/11 07:12:45;;;;;;;;;;;;;;;;;;5072024;28;19920;-66
2023/06/11 07:15:11;;;;;;;;;;;;;;;;;;5067878;28;20286;-66
2023/06/11 07:17:37;;;;;;;;;;;;;;;;;;5052825;28;20059;-66
2023/06/11 07:20:04;;;;;;;;;;;;;;;;;;5070190;28;19920;-65
2023/06/11 07:22:30;;;;;;;;;;;;;;;;;;5071895;28;19970;-66
2023/06/11 07:24:58;;;;;;;;;;;;;;;;;;5068010;28;19927;-66
2023/06/11 07:27:24;;;;;;;;;;;;;;;;;;5064748;28;19927;-66
2023/06/11 07:29:50;;;;;;;;;;;;;;;;;;5070353;28;20286;-66
2023/06/11 07:32:15;;;;;;;;;;;;;;;;;;5071610;28;19920;-66
2023/06/11 07:34:42;;;;;;;;;;;;;;;;;;5056061;28;20005;-66
2023/06/11 07:37:08;;;;;;;;;;;;;;;;;;5071173;28;19975;-66
2023/06/11 07:39:34;;;;;;;;;;;;;;;;;;5069563;28;19920;-66
2023/06/11 07:42:00;;;;;;;;;;;;;;;;;;5068089;28;20290;-66
2023/06/11 07:44:26;;;;;;;;;;;;;;;;;;5059106;28;19920;-66
2023/06/11 07:46:52;;;;;;;;;;;;;;;;;;5066186;28;19967;-66
2023/06/11 07:49:18;;;;;;;;;;;;;;;;;;5070279;28;19928;-66
2023/06/11 07:51:45;;;;;;;;;;;;;;;;;;5070131;28;19933;-66
2023/06/11 07:54:11;;;;;;;;;;;;;;;;;;5054553;28;19932;-66
2023/06/11 07:56:37;;;;;;;;;;;;;;;;;;5068760;28;19971;-66
2023/06/11 07:59:03;;;;;;;;;;;;;;;;;;5071461;28;19989;-66
2023/06/11 08:01:29;;;;;;;;;;;;;;;;;;5062565;28;20336;-66
2023/06/11 08:03:55;;;;;;;;;;;;;;;;;;5069323;28;19928;-66
2023/06/11 08:06:21;;;;;;;;;;;;;;;;;;5037330;28;19924;-66
2023/06/11 08:08:50;;;;;;;;;;;;;;;;;;5071566;28;20425;-66
2023/06/11 08:11:16;;;;;;;;;;;;;;;;;;5066647;28;19920;-66
2023/06/11 08:13:42;;;;;;;;;;;;;;;;;;5064869;28;19930;-66
2023/06/11 08:16:08;;;;;;;;;;;;;;;;;;5070106;28;19959;-66
2023/06/11 08:18:34;;;;;;;;;;;;;;;;;;5039261;28;20286;-65
2023/06/11 08:21:00;;;;;;;;;;;;;;;;;;5068263;28;20463;-66
2023/06/11 08:23:26;;;;;;;;;;;;;;;;;;5069802;28;20023;-66
2023/06/11 08:25:52;;;;;;;;;;;;;;;;;;5064545;28;20146;-66
2023/06/11 08:28:18;;;;;;;;;;;;;;;;;;5065017;28;20596;-66
2023/06/11 08:30:45;;;;;;;;;;;;;;;;;;5066721;28;19920;-65
2023/06/11 08:33:11;;;;;;;;;;;;;;;;;;5065082;28;20524;-66
2023/06/11 08:35:37;;;;;;;;;;;;;;;;;;5076623;28;19925;-66
2023/06/11 08:38:03;;;;;;;;;;;;;;;;;;5067025;28;19924;-65
2023/06/11 08:40:28;;;;;;;;;;;;;;;;;;5069948;28;19920;-65
2023/06/11 08:42:54;;;;;;;;;;;;;;;;;;5071819;28;19921;-66
2023/06/11 08:45:20;;;;;;;;;;;;;;;;;;5071676;28;20039;-67
2023/06/11 08:47:46;;;;;;;;;;;;;;;;;;5037228;28;19928;-66
2023/06/11 08:50:12;;;;;;;;;;;;;;;;;;5036933;28;19920;-66
2023/06/11 08:52:38;;;;;;;;;;;;;;;;;;5071824;28;19927;-68
2023/06/11 08:55:04;;;;;;;;;;;;;;;;;;5071723;28;20632;-66
2023/06/11 08:57:30;;;;;;;;;;;;;;;;;;5054272;28;20432;-66
2023/06/11 08:59:56;;;;;;;;;;;;;;;;;;5063501;28;19929;-67
2023/06/11 09:02:22;;;;;;;;;;;;;;;;;;5068036;28;19944;-66
2023/06/11 09:04:48;;;;;;;;;;;;;;;;;;5065447;28;20292;-66
2023/06/11 09:07:14;;;;;;;;;;;;;;;;;;5066196;28;19924;-66
2023/06/11 09:09:40;;;;;;;;;;;;;;;;;;5062207;28;19955;-66
2023/06/11 09:12:06;;;;;;;;;;;;;;;;;;5052593;28;19959;-66
2023/06/11 09:14:31;;;;;;;;;;;;;;;;;;5067772;28;19948;-66
2023/06/11 09:16:57;;;;;;;;;;;;;;;;;;5038852;28;19924;-66
2023/06/11 09:19:23;;;;;;;;;;;;;;;;;;5069728;28;19971;-66
2023/06/11 09:21:50;;;;;;;;;;;;;;;;;;5069362;28;19924;-66
2023/06/11 09:24:17;;;;;;;;;;;;;;;;;;5068095;28;20049;-66
2023/06/11 09:26:43;;;;;;;;;;;;;;;;;;5061619;28;19928;-66
2023/06/11 09:29:09;;;;;;;;;;;;;;;;;;5051946;28;20027;-66
2023/06/11 09:31:35;;;;;;;;;;;;;;;;;;5051224;28;20015;-66
2023/06/11 09:34:02;;;;;;;;;;;;;;;;;;5034312;28;20298;-66
2023/06/11 09:36:28;;;;;;;;;;;;;;;;;;5066413;22;19936;-62
2023/06/11 09:38:54;;;;;;;;;;;;;;;;;;5045629;28;19929;-61
2023/06/11 09:41:19;;;;;;;;;;;;;;;;;;5046511;28;19932;-62
2023/06/11 09:43:45;;;;;;;;;;;;;;;;;;5064300;28;19925;-64
2023/06/11 09:46:11;;;;;;;;;;;;;;;;;;5040161;28;20003;-61
2023/06/11 09:48:37;;;;;;;;;;;;;;;;;;5018919;28;19948;-61
2023/06/11 09:51:04;;;;;;;;;;;;;;;;;;5039119;28;19928;-66
2023/06/11 09:53:31;;;;;;;;;;;;;;;;;;5046484;28;19929;-62
2023/06/11 09:55:57;;;;;;;;;;;;;;;;;;5030238;28;20019;-62
2023/06/11 09:58:23;;;;;;;;;;;;;;;;;;5051472;28;20577;-62
2023/06/11 10:00:49;;;;;;;;;;;;;;;;;;5057263;28;19920;-62
2023/06/11 10:03:16;;;;;;;;;;;;;;;;;;5052234;28;20285;-62
2023/06/11 10:05:41;;;;;;;;;;;;;;;;;;5060314;28;19925;-62
2023/06/11 10:08:07;;;;;;;;;;;;;;;;;;5050449;28;20428;-62
2023/06/11 10:10:33;;;;;;;;;;;;;;;;;;5049575;28;20014;-62
2023/06/11 10:12:59;;;;;;;;;;;;;;;;;;5025744;28;19974;-62
2023/06/11 10:15:25;;;;;;;;;;;;;;;;;;5055504;28;19983;-62
2023/06/11 10:17:51;;;;;;;;;;;;;;;;;;5051089;28;20309;-62
2023/06/11 10:20:17;;;;;;;;;;;;;;;;;;5041709;28;20367;-62
2023/06/11 10:22:43;;;;;;;;;;;;;;;;;;5054315;28;19971;-62
2023/06/11 10:25:09;;;;;;;;;;;;;;;;;;5052159;28;19924;-62
2023/06/11 10:27:36;;;;;;;;;;;;;;;;;;5052099;28;21451;-62
2023/06/11 10:30:02;;;;;;;;;;;;;;;;;;5051775;28;19935;-62
2023/06/11 10:32:28;;;;;;;;;;;;;;;;;;5053758;28;19924;-62
2023/06/11 10:34:54;;;;;;;;;;;;;;;;;;5067056;28;20282;-62
2023/06/11 10:37:20;;;;;;;;;;;;;;;;;;5034171;28;19929;-62
2023/06/11 10:39:46;;;;;;;;;;;;;;;;;;5036920;28;19971;-62
2023/06/11 10:42:12;;;;;;;;;;;;;;;;;;5061276;28;20500;-62
2023/06/11 10:44:38;;;;;;;;;;;;;;;;;;5035673;28;19956;-61
2023/06/11 10:47:04;;;;;;;;;;;;;;;;;;5071328;28;20293;-62
2023/06/11 10:49:30;;;;;;;;;;;;;;;;;;5064788;28;19928;-62
2023/06/11 10:51:56;;;;;;;;;;;;;;;;;;5036599;28;19935;-62
2023/06/11 10:54:22;;;;;;;;;;;;;;;;;;5074284;28;19925;-62
2023/06/11 10:56:48;;;;;;;;;;;;;;;;;;5055281;28;19971;-62
2023/06/11 10:59:13;;;;;;;;;;;;;;;;;;5067694;28;19921;-62
2023/06/11 11:01:39;;;;;;;;;;;;;;;;;;5052168;28;19928;-62
2023/06/11 11:04:05;;;;;;;;;;;;;;;;;;5064148;28;20675;-62
2023/06/11 11:06:31;;;;;;;;;;;;;;;;;;5063691;28;19924;-62
2023/06/11 11:08:57;;;;;;;;;;;;;;;;;;5038976;28;19924;-62
2023/06/11 11:11:23;;;;;;;;;;;;;;;;;;5066856;28;20297;-62
2023/06/11 11:13:50;;;;;;;;;;;;;;;;;;5051423;28;20032;-62
2023/06/11 11:16:16;;;;;;;;;;;;;;;;;;5033700;28;19920;-62
2023/06/11 11:18:42;;;;;;;;;;;;;;;;;;5031133;28;20485;-66
2023/06/11 11:21:07;;;;;;;;;;;;;;;;;;5049239;28;19922;-66
2023/06/11 11:23:33;;;;;;;;;;;;;;;;;;5038754;28;20447;-62
2023/06/11 11:25:59;;;;;;;;;;;;;;;;;;5046287;28;20608;-62
2023/06/11 11:28:26;;;;;;;;;;;;;;;;;;5033563;28;20332;-62
2023/06/11 11:30:51;;;;;;;;;;;;;;;;;;5060208;28;19936;-62
2023/06/11 11:33:17;;;;;;;;;;;;;;;;;;5055315;28;19920;-62
2023/06/11 11:35:43;;;;;;;;;;;;;;;;;;5034096;28;19920;-62
2023/06/11 11:38:09;;;;;;;;;;;;;;;;;;5030678;28;19937;-62
2023/06/11 11:40:35;;;;;;;;;;;;;;;;;;5045581;28;19925;-62
2023/06/11 11:43:01;;;;;;;;;;;;;;;;;;5051380;28;20382;-62
2023/06/11 11:45:27;;;;;;;;;;;;;;;;;;5036541;28;20846;-62
2023/06/11 11:47:53;;;;;;;;;;;;;;;;;;5061522;28;19931;-61
2023/06/11 11:50:20;;;;;;;;;;;;;;;;;;5055231;28;19933;-62
2023/06/11 11:52:46;;;;;;;;;;;;;;;;;;5040105;28;20284;-62
2023/06/11 11:55:12;;;;;;;;;;;;;;;;;;5051031;28;19932;-63
2023/06/11 11:57:38;;;;;;;;;;;;;;;;;;5051248;28;19921;-66
2023/06/11 12:00:05;;;;;;;;;;;;;;;;;;5052642;28;19924;-66
2023/06/11 12:02:31;;;;;;;;;;;;;;;;;;5048359;28;19959;-65
2023/06/11 12:05:00;;;;;;;;;;;;;;;;;;5056702;28;20020;-64
2023/06/11 12:07:26;;;;;;;;;;;;;;;;;;5057672;28;19925;-65
2023/06/11 12:09:52;;;;;;;;;;;;;;;;;;5054427;28;19931;-65
2023/06/11 12:12:18;;;;;;;;;;;;;;;;;;5049768;28;19982;-65
2023/06/11 12:14:44;;;;;;;;;;;;;;;;;;5031694;28;19929;-65
2023/06/11 12:17:10;;;;;;;;;;;;;;;;;;5048811;28;20014;-65
2023/06/11 12:19:36;;;;;;;;;;;;;;;;;;5068135;28;19932;-64
2023/06/11 12:22:02;;;;;;;;;;;;;;;;;;5063124;28;19921;-65
2023/06/11 12:24:28;;;;;;;;;;;;;;;;;;5051115;28;19974;-65
2023/06/11 12:26:54;;;;;;;;;;;;;;;;;;5052149;28;19928;-65
2023/06/11 12:29:20;;;;;;;;;;;;;;;;;;5042856;28;20244;-65
2023/06/11 12:31:46;;;;;;;;;;;;;;;;;;5047857;28;19964;-65
2023/06/11 12:34:15;;;;;;;;;;;;;;;;;;5052008;28;20596;-65
2023/06/11 12:36:42;;;;;;;;;;;;;;;;;;5046323;28;19975;-65
2023/06/11 12:39:08;;;;;;;;;;;;;;;;;;5050867;28;20344;-66
2023/06/11 12:41:34;;;;;;;;;;;;;;;;;;5036982;28;19925;-65
2023/06/11 12:44:00;;;;;;;;;;;;;;;;;;5050730;28;19924;-66
2023/06/11 12:46:26;;;;;;;;;;;;;;;;;;5050731;28;20396;-66
2023/06/11 12:48:52;;;;;;;;;;;;;;;;;;5056880;28;19927;-60
2023/06/11 12:51:18;;;;;;;;;;;;;;;;;;5037130;28;19936;-59
2023/06/11 12:53:44;;;;;;;;;;;;;;;;;;5056769;28;20022;-60
2023/06/11 12:56:10;;;;;;;;;;;;;;;;;;5071334;28;19924;-60
2023/06/11 12:58:36;;;;;;;;;;;;;;;;;;5052161;28;19928;-60
2023/06/11 13:01:02;;;;;;;;;;;;;;;;;;5049739;28;19959;-60
2023/06/11 13:03:28;;;;;;;;;;;;;;;;;;5061068;28;20502;-60
2023/06/11 13:05:53;;;;;;;;;;;;;;;;;;5048935;28;19925;-60
2023/06/11 13:08:19;;;;;;;;;;;;;;;;;;5065368;28;19951;-60
2023/06/11 13:10:45;;;;;;;;;;;;;;;;;;5067855;28;19928;-60
2023/06/11 13:13:11;;;;;;;;;;;;;;;;;;5059791;28;19943;-60
2023/06/11 13:15:37;;;;;;;;;;;;;;;;;;5045910;28;19927;-60
2023/06/11 13:18:03;;;;;;;;;;;;;;;;;;5052407;28;20403;-60
2023/06/11 13:20:29;;;;;;;;;;;;;;;;;;5026453;28;20011;-60
2023/06/11 13:22:55;;;;;;;;;;;;;;;;;;5048126;28;19921;-60
2023/06/11 13:25:21;;;;;;;;;;;;;;;;;;5065199;28;19927;-60
2023/06/11 13:27:47;;;;;;;;;;;;;;;;;;5067748;28;19966;-60
2023/06/11 13:30:13;;;;;;;;;;;;;;;;;;5014905;28;19977;-59
2023/06/11 13:32:39;;;;;;;;;;;;;;;;;;5061040;28;20359;-59
2023/06/11 13:35:04;;;;;;;;;;;;;;;;;;5051353;28;19932;-60
2023/06/11 13:37:30;;;;;;;;;;;;;;;;;;5032963;28;19936;-60
2023/06/11 13:39:56;;;;;;;;;;;;;;;;;;5071346;28;20313;-60
2023/06/11 13:42:22;;;;;;;;;;;;;;;;;;5056234;28;19921;-60
2023/06/11 13:44:48;;;;;;;;;;;;;;;;;;5043452;28;19928;-63
2023/06/11 13:47:14;;;;;;;;;;;;;;;;;;5043249;28;19921;-62
2023/06/11 13:49:40;;;;;;;;;;;;;;;;;;5056466;28;19935;-62
2023/06/11 13:52:06;;;;;;;;;;;;;;;;;;5056699;28;19924;-62
2023/06/11 13:54:33;;;;;;;;;;;;;;;;;;5057508;28;20428;-63
2023/06/11 13:56:58;;;;;;;;;;;;;;;;;;5056212;28;19924;-62
2023/06/11 13:59:25;;;;;;;;;;;;;;;;;;5055882;28;19921;-62
2023/06/11 14:01:51;;;;;;;;;;;;;;;;;;5037727;28;19931;-62
2023/06/11 14:04:17;;;;;;;;;;;;;;;;;;5057593;28;19925;-62
2023/06/11 14:06:43;;;;;;;;;;;;;;;;;;5051177;28;20262;-62
2023/06/11 14:09:09;;;;;;;;;;;;;;;;;;5056399;28;19921;-62
2023/06/11 14:11:35;;;;;;;;;;;;;;;;;;5037237;28;19929;-63
2023/06/11 14:14:01;;;;;;;;;;;;;;;;;;5058182;28;19925;-62
2023/06/11 14:16:27;;;;;;;;;;;;;;;;;;5052935;28;19930;-62
2023/06/11 14:18:53;;;;;;;;;;;;;;;;;;5070743;28;19925;-62
2023/06/11 14:21:18;;;;;;;;;;;;;;;;;;5055835;28;19928;-62
2023/06/11 14:23:44;;;;;;;;;;;;;;;;;;5056352;28;20354;-63
2023/06/11 14:26:10;;;;;;;;;;;;;;;;;;5036435;28;19978;-62
2023/06/11 14:28:36;;;;;;;;;;;;;;;;;;5023847;28;19940;-62
2023/06/11 14:31:04;;;;;;;;;;;;;;;;;;5059743;28;19932;-62
2023/06/11 14:33:30;;;;;;;;;;;;;;;;;;5057290;28;20019;-62
2023/06/11 14:35:56;;;;;;;;;;;;;;;;;;5053060;28;20389;-62
2023/06/11 14:38:22;;;;;;;;;;;;;;;;;;5054241;28;20621;-62
2023/06/11 14:40:48;;;;;;;;;;;;;;;;;;5064822;28;19931;-62
2023/06/11 14:43:14;;;;;;;;;;;;;;;;;;5028941;28;19921;-62
2023/06/11 14:45:40;;;;;;;;;;;;;;;;;;5051867;28;19932;-62
2023/06/11 14:48:06;;;;;;;;;;;;;;;;;;5057651;28;19921;-62
2023/06/11 14:50:32;;;;;;;;;;;;;;;;;;5039691;28;19924;-62
2023/06/11 14:52:57;;;;;;;;;;;;;;;;;;5058007;28;19927;-62
2023/06/11 14:55:23;;;;;;;;;;;;;;;;;;5043474;28;20389;-62
2023/06/11 14:57:49;;;;;;;;;;;;;;;;;;5062838;28;19921;-62
2023/06/11 15:00:15;;;;;;;;;;;;;;;;;;5035928;28;19929;-62
2023/06/11 15:02:41;;;;;;;;;;;;;;;;;;5057501;28;19976;-62
2023/06/11 15:05:07;;;;;;;;;;;;;;;;;;5028899;28;19921;-62
2023/06/11 15:07:34;;;;;;;;;;;;;;;;;;5068270;28;19929;-62
2023/06/11 15:10:00;;;;;;;;;;;;;;;;;;5044004;28;19929;-62
2023/06/11 15:12:26;;;;;;;;;;;;;;;;;;5043637;28;20244;-62
2023/06/11 15:14:52;;;;;;;;;;;;;;;;;;5054586;28;19925;-62
2023/06/11 15:17:18;;;;;;;;;;;;;;;;;;5051443;28;19924;-62
2023/06/11 15:19:44;;;;;;;;;;;;;;;;;;5064895;28;20019;-62
2023/06/11 15:22:09;;;;;;;;;;;;;;;;;;5055912;28;19968;-62
2023/06/11 15:24:35;;;;;;;;;;;;;;;;;;5050252;28;19925;-62
2023/06/11 15:27:01;;;;;;;;;;;;;;;;;;5054466;28;19928;-61
2023/06/11 15:29:27;;;;;;;;;;;;;;;;;;5049816;28;19927;-62
2023/06/11 15:31:53;;;;;;;;;;;;;;;;;;5051244;28;19925;-62
2023/06/11 15:34:19;;;;;;;;;;;;;;;;;;5071263;28;19920;-62
2023/06/11 15:36:45;;;;;;;;;;;;;;;;;;5055627;28;19975;-62
2023/06/11 15:39:12;;;;;;;;;;;;;;;;;;5059268;28;19978;-62
2023/06/11 15:41:38;;;;;;;;;;;;;;;;;;5057577;28;19928;-62
2023/06/11 15:44:04;;;;;;;;;;;;;;;;;;5049094;28;19921;-62
2023/06/11 15:46:30;;;;;;;;;;;;;;;;;;5062091;28;19932;-62
2023/06/11 15:48:56;;;;;;;;;;;;;;;;;;5054739;28;19921;-62
2023/06/11 15:51:22;;;;;;;;;;;;;;;;;;5050437;28;19969;-62
2023/06/11 15:53:48;;;;;;;;;;;;;;;;;;5022862;28;19925;-62
2023/06/11 15:56:14;;;;;;;;;;;;;;;;;;5063176;28;19920;-62
2023/06/11 15:58:40;;;;;;;;;;;;;;;;;;5061670;28;19970;-62
2023/06/11 16:01:06;;;;;;;;;;;;;;;;;;5028666;28;19925;-62
2023/06/11 16:03:32;;;;;;;;;;;;;;;;;;5028088;28;20011;-63
2023/06/11 16:05:58;;;;;;;;;;;;;;;;;;5057473;28;20340;-65
2023/06/11 16:08:23;;;;;;;;;;;;;;;;;;5065424;28;20319;-62
2023/06/11 16:10:49;;;;;;;;;;;;;;;;;;5072629;28;20329;-62
2023/06/11 16:13:15;;;;;;;;;;;;;;;;;;5073765;28;19928;-62
2023/06/11 16:15:43;;;;;;;;;;;;;;;;;;5054440;28;20018;-62
2023/06/11 16:18:09;;;;;;;;;;;;;;;;;;5047419;28;20265;-63
2023/06/11 16:20:35;;;;;;;;;;;;;;;;;;5016204;28;20012;-61
2023/06/11 16:23:02;;;;;;;;;;;;;;;;;;5048137;28;20405;-62
2023/06/11 16:25:28;;;;;;;;;;;;;;;;;;5048201;28;19928;-62
2023/06/11 16:27:54;;;;;;;;;;;;;;;;;;5044078;28;19920;-62
2023/06/11 16:30:20;;;;;;;;;;;;;;;;;;5067529;28;19932;-61
2023/06/11 16:32:46;;;;;;;;;;;;;;;;;;5060465;28;19931;-62
2023/06/11 16:35:12;;;;;;;;;;;;;;;;;;5039075;28;20355;-62
2023/06/11 16:37:39;;;;;;;;;;;;;;;;;;5058845;28;19925;-62